createdAt,value
2022-08-15T00:00:34.890Z,60.39
2022-08-15T00:03:10.602Z,55.40
2022-08-15T00:05:42.373Z,56.73
2022-08-15T00:08:51.160Z,59.08
2022-08-15T00:11:19.602Z,61.17
2022-08-15T00:13:59.569Z,64.87
2022-08-15T00:16:37.432Z,59.04
2022-08-15T00:19:13.900Z,55.39
2022-08-15T00:21:48.975Z,57.65
2022-08-15T00:24:29.694Z,59.60
2022-08-15T00:27:10.325Z,61.41
2022-08-15T00:29:40.321Z,65.40
2022-08-15T00:33:02.136Z,59.80
2022-08-15T00:35:30.905Z,55.64
2022-08-15T00:38:11.774Z,58.09
2022-08-15T00:41:09.648Z,60.47
2022-08-15T00:43:42.361Z,62.11
2022-08-15T00:46:21.429Z,66.00
2022-08-15T00:48:51.766Z,60.29
2022-08-15T00:51:32.447Z,55.57
2022-08-15T00:54:37.381Z,57.26
2022-08-15T00:57:57.342Z,60.18
2022-08-15T01:00:33.776Z,61.84
2022-08-15T01:04:17.758Z,64.09
2022-08-15T01:06:52.381Z,56.92
2022-08-15T01:09:29.237Z,56.45
2022-08-15T01:12:11.702Z,58.83
2022-08-15T01:14:55.617Z,60.95
2022-08-15T01:17:29.451Z,64.81
2022-08-15T01:20:06.126Z,59.92
2022-08-15T01:22:48.831Z,55.46
2022-08-15T01:26:38.902Z,57.48
2022-08-15T01:28:31.651Z,59.87
2022-08-15T01:31:09.768Z,61.70
2022-08-15T01:33:48.810Z,65.67
2022-08-15T01:36:31.636Z,60.06
2022-08-15T01:39:17.209Z,55.59
2022-08-15T01:42:17.832Z,57.53
2022-08-15T01:45:00.783Z,60.05
2022-08-15T01:48:20.313Z,61.92
2022-08-15T01:50:52.922Z,64.80
2022-08-15T01:53:42.194Z,57.87
2022-08-15T01:56:35.518Z,56.32
2022-08-15T01:59:08.441Z,59.28
2022-08-15T02:01:54.632Z,61.50
2022-08-15T02:04:35.967Z,65.28
2022-08-15T02:07:21.393Z,59.31
2022-08-15T02:09:55.919Z,55.95
2022-08-15T02:13:03.619Z,58.36
2022-08-15T02:15:24.551Z,61.22
2022-08-15T02:17:57.010Z,64.83
2022-08-15T02:20:27.092Z,60.61
2022-08-15T02:22:56.979Z,55.78
2022-08-15T02:25:26.046Z,57.31
2022-08-15T02:27:56.453Z,60.07
2022-08-15T02:30:30.536Z,62.03
2022-08-15T02:33:06.146Z,65.19
2022-08-15T02:35:41.814Z,59.20
2022-08-15T02:38:11.605Z,56.06
2022-08-15T02:40:52.107Z,58.33
2022-08-15T02:43:22.976Z,60.81
2022-08-15T02:45:56.430Z,64.52
2022-08-15T02:48:57.661Z,59.46
2022-08-15T02:51:46.949Z,55.75
2022-08-15T02:54:37.147Z,58.42
2022-08-15T02:57:12.628Z,60.84
2022-08-15T02:59:43.154Z,63.57
2022-08-15T03:02:30.124Z,63.50
2022-08-15T03:05:04.079Z,56.58
2022-08-15T03:07:35.171Z,56.78
2022-08-15T03:10:06.032Z,59.21
2022-08-15T03:12:57.241Z,61.31
2022-08-15T03:15:31.590Z,64.77
2022-08-15T03:18:03.761Z,58.73
2022-08-15T03:20:34.846Z,55.69
2022-08-15T03:23:06.388Z,57.74
2022-08-15T03:25:49.148Z,60.15
2022-08-15T03:28:28.264Z,61.63
2022-08-15T03:31:04.872Z,65.98
2022-08-15T03:33:56.316Z,60.34
2022-08-15T03:36:24.811Z,55.40
2022-08-15T03:38:56.267Z,57.24
2022-08-15T03:41:27.161Z,59.67
2022-08-15T03:43:57.382Z,61.38
2022-08-15T03:46:26.991Z,65.30
2022-08-15T03:48:58.340Z,60.08
2022-08-15T03:51:32.144Z,55.64
2022-08-15T03:54:05.747Z,57.49
2022-08-15T03:56:54.400Z,60.01
2022-08-15T03:59:23.396Z,61.87
2022-08-15T04:01:58.432Z,65.79
2022-08-15T04:04:29.716Z,60.67
2022-08-15T04:07:00.856Z,55.70
2022-08-15T04:09:35.237Z,57.12
2022-08-15T04:12:25.986Z,59.84
2022-08-15T04:14:56.060Z,62.16
2022-08-15T04:17:57.475Z,64.77
2022-08-15T04:20:32.405Z,58.78
2022-08-15T04:23:05.125Z,55.73
2022-08-15T04:25:43.296Z,58.02
2022-08-15T04:28:38.973Z,60.69
2022-08-15T04:31:19.106Z,62.60
2022-08-15T04:34:44.171Z,64.98
2022-08-15T04:36:38.112Z,57.86
2022-08-15T04:39:12.435Z,56.20
2022-08-15T04:41:50.909Z,58.55
2022-08-15T04:44:28.569Z,61.19
2022-08-15T04:46:58.754Z,64.84
2022-08-15T04:49:29.367Z,60.56
2022-08-15T04:52:17.816Z,55.67
2022-08-15T04:54:57.849Z,57.34
2022-08-15T04:57:31.268Z,60.02
2022-08-15T05:00:04.977Z,61.80
2022-08-15T05:03:05.424Z,65.59
2022-08-15T05:05:41.662Z,59.05
2022-08-15T05:08:14.324Z,55.68
2022-08-15T05:10:50.503Z,57.60
2022-08-15T05:13:21.977Z,60.15
2022-08-15T05:15:53.515Z,62.02
2022-08-15T05:18:24.859Z,66.00
2022-08-15T05:20:54.427Z,60.60
2022-08-15T05:23:33.700Z,55.53
2022-08-15T05:26:37.519Z,57.40
2022-08-15T05:29:04.114Z,59.99
2022-08-15T05:31:34.491Z,61.97
2022-08-15T05:34:08.581Z,65.67
2022-08-15T05:36:52.232Z,59.79
2022-08-15T05:39:26.064Z,55.84
2022-08-15T05:42:37.601Z,57.52
2022-08-15T05:45:51.639Z,60.47
2022-08-15T05:48:36.321Z,62.03
2022-08-15T05:51:22.522Z,65.98
2022-08-15T05:54:53.877Z,59.53
2022-08-15T05:57:35.516Z,56.03
2022-08-15T06:00:16.012Z,58.29
2022-08-15T06:02:58.467Z,60.14
2022-08-15T06:05:35.691Z,61.89
2022-08-15T06:08:48.436Z,66.28
2022-08-15T06:11:13.016Z,59.00
2022-08-15T06:13:57.187Z,55.42
2022-08-15T06:16:41.214Z,57.60
2022-08-15T06:19:34.358Z,59.93
2022-08-15T06:22:46.555Z,61.41
2022-08-15T06:26:18.713Z,65.89
2022-08-15T06:29:09.676Z,56.82
2022-08-15T06:31:58.840Z,55.57
2022-08-15T06:34:54.661Z,58.59
2022-08-15T06:37:59.471Z,59.93
2022-08-15T06:40:42.620Z,61.24
2022-08-15T06:43:13.029Z,65.96
2022-08-15T06:46:03.442Z,59.04
2022-08-15T06:48:58.321Z,54.97
2022-08-15T06:51:45.382Z,57.00
2022-08-15T06:54:34.555Z,59.06
2022-08-15T06:57:19.742Z,60.65
2022-08-15T06:59:59.547Z,65.05
2022-08-15T07:02:56.396Z,58.81
2022-08-15T07:05:38.165Z,55.17
2022-08-15T07:08:29.085Z,57.49
2022-08-15T07:11:28.514Z,59.36
2022-08-15T07:14:36.095Z,60.77
2022-08-15T07:17:32.475Z,65.79
2022-08-15T07:20:34.716Z,58.35
2022-08-15T07:22:50.981Z,55.55
2022-08-15T07:25:28.823Z,57.23
2022-08-15T07:28:07.828Z,59.33
2022-08-15T07:30:46.260Z,60.50
2022-08-15T07:33:34.765Z,64.88
2022-08-15T07:36:35.529Z,59.39
2022-08-15T07:39:34.185Z,55.33
2022-08-15T07:42:28.999Z,56.84
2022-08-15T07:45:24.824Z,58.38
2022-08-15T07:47:58.679Z,59.71
2022-08-15T07:50:32.667Z,60.82
2022-08-15T07:53:15.762Z,65.89
2022-08-15T07:56:45.595Z,59.56
2022-08-15T07:59:24.207Z,54.84
2022-08-15T08:02:29.636Z,56.62
2022-08-15T08:07:57.324Z,59.15
2022-08-15T08:10:29.351Z,60.57
2022-08-15T08:13:38.984Z,64.81
2022-08-15T08:16:31.173Z,58.80
2022-08-15T08:19:12.172Z,54.38
2022-08-15T08:22:03.905Z,55.95
2022-08-15T08:24:46.919Z,57.53
2022-08-15T08:27:23.445Z,58.97
2022-08-15T08:30:13.345Z,60.08
2022-08-15T08:33:10.955Z,64.80
2022-08-15T08:35:45.972Z,57.95
2022-08-15T08:39:03.904Z,53.77
2022-08-15T08:41:55.780Z,55.46
2022-08-15T08:44:58.200Z,57.28
2022-08-15T08:48:02.332Z,58.66
2022-08-15T08:50:55.798Z,59.72
2022-08-15T08:53:44.683Z,64.47
2022-08-15T08:56:32.453Z,58.52
2022-08-15T08:59:25.622Z,54.76
2022-08-15T09:02:12.219Z,55.86
2022-08-15T09:04:57.226Z,56.78
2022-08-15T09:07:32.071Z,58.66
2022-08-15T09:10:07.621Z,59.38
2022-08-15T09:13:01.382Z,60.22
2022-08-15T09:15:46.390Z,65.45
2022-08-15T09:18:45.285Z,59.22
2022-08-15T09:21:19.638Z,53.57
2022-08-15T09:23:49.843Z,55.12
2022-08-15T09:26:31.481Z,56.25
2022-08-15T09:29:26.488Z,57.17
2022-08-15T09:32:00.252Z,57.91
2022-08-15T09:34:50.057Z,59.65
2022-08-15T09:37:56.882Z,59.70
2022-08-15T09:41:12.303Z,59.78
2022-08-15T09:43:56.902Z,64.11
2022-08-15T09:46:50.754Z,55.83
2022-08-15T09:49:31.166Z,54.68
2022-08-15T09:52:35.616Z,55.56
2022-08-15T09:55:36.070Z,56.20
2022-08-15T09:58:25.032Z,57.32
2022-08-15T10:01:20.675Z,58.65
2022-08-15T10:03:52.919Z,58.19
2022-08-15T10:06:41.677Z,59.77
2022-08-15T10:09:34.630Z,58.84
2022-08-15T10:12:08.834Z,58.83
2022-08-15T10:14:49.206Z,59.87
2022-08-15T10:17:27.708Z,60.90
2022-08-15T10:20:00.958Z,64.22
2022-08-15T10:23:00.946Z,55.40
2022-08-15T10:25:37.216Z,53.85
2022-08-15T10:28:37.591Z,54.10
2022-08-15T10:31:52.750Z,54.10
2022-08-15T10:34:57.739Z,54.90
2022-08-15T10:37:35.129Z,55.44
2022-08-15T10:40:37.644Z,55.99
2022-08-15T10:43:34.904Z,56.01
2022-08-15T10:46:22.395Z,55.86
2022-08-15T10:49:06.436Z,56.53
2022-08-15T10:51:47.718Z,56.57
2022-08-15T10:54:36.632Z,56.60
2022-08-15T10:57:10.028Z,56.98
2022-08-15T10:59:45.628Z,56.79
2022-08-15T11:03:10.654Z,56.90
2022-08-15T11:05:44.955Z,56.29
2022-08-15T11:08:17.842Z,55.50
2022-08-15T11:10:47.541Z,56.36
2022-08-15T11:13:22.086Z,57.04
2022-08-15T11:15:58.327Z,57.23
2022-08-15T11:18:38.164Z,56.77
2022-08-15T11:21:23.245Z,56.91
2022-08-15T11:23:57.053Z,56.61
2022-08-15T11:26:31.238Z,55.78
2022-08-15T11:29:23.535Z,55.11
2022-08-15T11:32:01.003Z,55.32
2022-08-15T11:34:50.796Z,55.57
2022-08-15T11:37:24.583Z,56.08
2022-08-15T11:39:57.651Z,56.00
2022-08-15T11:42:30.719Z,55.64
2022-08-15T11:45:23.512Z,55.58
2022-08-15T11:47:56.396Z,54.47
2022-08-15T11:50:29.178Z,55.08
2022-08-15T11:53:07.285Z,54.85
2022-08-15T11:55:37.813Z,53.97
2022-08-15T11:58:18.243Z,53.71
2022-08-15T12:00:54.027Z,53.30
2022-08-15T12:04:39.308Z,53.75
2022-08-15T12:06:49.560Z,53.51
2022-08-15T12:09:42.970Z,53.68
2022-08-15T12:12:48.275Z,53.26
2022-08-15T12:15:22.079Z,53.01
2022-08-15T12:18:08.661Z,53.39
2022-08-15T12:20:43.002Z,52.64
2022-08-15T12:23:23.978Z,53.10
2022-08-15T12:25:55.265Z,53.33
2022-08-15T12:28:37.230Z,52.13
2022-08-15T12:31:23.827Z,51.84
2022-08-15T12:34:27.632Z,51.88
2022-08-15T12:37:11.698Z,51.51
2022-08-15T12:40:01.267Z,51.81
2022-08-15T12:42:49.623Z,51.24
2022-08-15T12:45:24.127Z,50.27
2022-08-15T12:48:05.201Z,50.97
2022-08-15T12:50:37.852Z,51.55
2022-08-15T12:53:11.001Z,50.87
2022-08-15T12:55:41.709Z,51.04
2022-08-15T12:58:12.361Z,50.91
2022-08-15T13:01:02.866Z,50.95
2022-08-15T13:03:59.762Z,51.53
2022-08-15T13:06:55.339Z,52.57
2022-08-15T13:09:28.911Z,52.15
2022-08-15T13:11:58.508Z,52.39
2022-08-15T13:14:27.808Z,52.95
2022-08-15T13:17:09.131Z,52.99
2022-08-15T13:20:03.887Z,52.60
2022-08-15T13:22:51.517Z,52.67
2022-08-15T13:25:20.971Z,52.58
2022-08-15T13:27:51.777Z,52.23
2022-08-15T13:30:22.377Z,52.94
2022-08-15T13:32:52.111Z,51.76
2022-08-15T13:35:28.884Z,51.97
2022-08-15T13:38:05.096Z,51.28
2022-08-15T13:40:52.552Z,51.31
2022-08-15T13:43:25.006Z,51.33
2022-08-15T13:45:59.044Z,51.17
2022-08-15T13:48:38.981Z,51.23
2022-08-15T13:51:12.959Z,50.91
2022-08-15T13:54:02.697Z,50.46
2022-08-15T13:56:34.043Z,49.39
2022-08-15T13:59:11.964Z,49.53
2022-08-15T14:01:44.577Z,49.64
2022-08-15T14:04:23.853Z,49.68
2022-08-15T14:06:55.485Z,49.65
2022-08-15T14:10:04.439Z,49.66
2022-08-15T14:12:15.119Z,49.95
2022-08-15T14:14:46.915Z,50.19
2022-08-15T14:17:37.126Z,49.32
2022-08-15T14:20:26.919Z,48.97
2022-08-15T14:22:58.470Z,48.67
2022-08-15T14:27:12.548Z,49.17
2022-08-15T14:28:19.593Z,49.34
2022-08-15T14:39:17.331Z,50.08
2022-08-15T14:41:51.232Z,50.50
2022-08-15T14:44:47.311Z,50.45
2022-08-15T14:47:12.063Z,50.83
2022-08-15T14:50:54.864Z,50.72
2022-08-15T14:52:33.396Z,51.17
2022-08-15T14:55:02.292Z,51.42
2022-08-15T14:57:37.824Z,51.33
2022-08-15T15:00:11.771Z,51.30
2022-08-15T15:03:00.351Z,51.54
2022-08-15T15:06:05.214Z,50.88
2022-08-15T15:08:20.591Z,51.54
2022-08-15T15:10:49.607Z,51.74
2022-08-15T15:13:18.858Z,51.47
2022-08-15T15:16:38.996Z,52.01
2022-08-15T15:18:47.023Z,51.55
2022-08-15T15:21:28.678Z,52.23
2022-08-15T15:23:56.852Z,52.25
2022-08-15T15:26:37.538Z,52.49
2022-08-15T15:29:14.312Z,52.39
2022-08-15T15:31:43.291Z,53.01
2022-08-15T15:34:15.402Z,52.91
2022-08-15T15:36:47.430Z,53.41
2022-08-15T15:39:27.809Z,53.16
2022-08-15T15:42:17.096Z,53.51
2022-08-15T15:44:48.793Z,53.54
2022-08-15T15:47:25.688Z,53.93
2022-08-15T15:49:56.829Z,53.95
2022-08-15T15:52:32.474Z,54.19
2022-08-15T15:55:04.837Z,54.13
2022-08-15T15:58:01.037Z,54.54
2022-08-15T16:00:29.547Z,54.27
2022-08-15T16:03:04.784Z,54.80
2022-08-15T16:06:59.106Z,55.02
2022-08-15T16:08:39.793Z,55.06
2022-08-15T16:11:43.029Z,55.66
2022-08-15T16:14:32.933Z,55.32
2022-08-15T16:17:25.617Z,55.45
2022-08-15T16:20:28.394Z,55.68
2022-08-15T16:22:58.895Z,55.54
2022-08-15T16:25:41.551Z,55.53
2022-08-15T16:28:38.763Z,55.79
2022-08-15T16:31:35.201Z,55.70
2022-08-15T16:34:17.505Z,56.37
2022-08-15T16:37:09.680Z,56.42
2022-08-15T16:39:46.459Z,56.39
2022-08-15T16:42:41.514Z,56.56
2022-08-15T16:45:15.670Z,56.53
2022-08-15T16:47:55.212Z,56.62
2022-08-15T16:50:47.840Z,56.84
2022-08-15T16:53:56.337Z,57.25
2022-08-15T16:56:33.778Z,57.79
2022-08-15T16:59:25.049Z,58.43
2022-08-15T17:03:03.497Z,59.22
2022-08-15T17:05:08.602Z,60.08
2022-08-15T17:07:46.897Z,61.01
2022-08-15T17:10:41.814Z,61.04
2022-08-15T17:14:01.830Z,60.75
2022-08-15T17:16:53.837Z,61.37
2022-08-15T17:19:32.286Z,62.19
2022-08-15T17:22:35.997Z,62.05
2022-08-15T17:25:14.884Z,61.61
2022-08-15T17:28:34.733Z,61.05
2022-08-15T17:31:10.829Z,60.72
2022-08-15T17:33:56.547Z,60.67
2022-08-15T17:36:24.791Z,61.09
2022-08-15T17:39:10.634Z,61.23
2022-08-15T17:41:43.768Z,61.36
2022-08-15T17:44:56.996Z,61.54
2022-08-15T17:47:28.859Z,61.68
2022-08-15T17:50:47.719Z,61.85
2022-08-15T17:53:21.732Z,62.13
2022-08-15T17:55:58.212Z,62.37
2022-08-15T17:58:35.693Z,66.22
2022-08-15T18:01:05.307Z,61.01
2022-08-15T18:03:34.227Z,54.11
2022-08-15T18:06:11.223Z,54.19
2022-08-15T18:08:54.456Z,55.34
2022-08-15T18:11:35.197Z,56.65
2022-08-15T18:14:39.237Z,57.56
2022-08-15T18:16:59.267Z,58.16
2022-08-15T18:19:28.989Z,59.34
2022-08-15T18:22:01.450Z,60.22
2022-08-15T18:24:41.338Z,60.21
2022-08-15T18:27:32.085Z,60.99
2022-08-15T18:30:37.082Z,61.31
2022-08-15T18:33:17.807Z,61.81
2022-08-15T18:35:46.700Z,62.15
2022-08-15T18:38:16.409Z,62.00
2022-08-15T18:41:07.527Z,66.12
2022-08-15T18:43:46.445Z,60.06
2022-08-15T18:46:26.658Z,54.34
2022-08-15T18:49:16.503Z,55.25
2022-08-15T18:51:44.965Z,56.92
2022-08-15T18:54:48.351Z,58.15
2022-08-15T18:57:25.150Z,58.97
2022-08-15T19:00:07.383Z,59.58
2022-08-15T19:03:13.815Z,60.04
2022-08-15T19:05:45.305Z,60.54
2022-08-15T19:08:38.434Z,61.53
2022-08-15T19:11:15.084Z,61.76
2022-08-15T19:13:57.489Z,65.66
2022-08-15T19:16:30.901Z,60.14
2022-08-15T19:19:30.121Z,54.74
2022-08-15T19:22:00.843Z,55.95
2022-08-15T19:24:32.326Z,57.68
2022-08-15T19:27:11.143Z,58.56
2022-08-15T19:30:06.105Z,59.76
2022-08-15T19:32:51.594Z,60.18
2022-08-15T19:35:20.281Z,61.19
2022-08-15T19:38:00.230Z,61.70
2022-08-15T19:41:03.015Z,65.36
2022-08-15T19:43:37.642Z,58.39
2022-08-15T19:46:14.519Z,54.81
2022-08-15T19:49:34.026Z,55.99
2022-08-15T19:52:44.344Z,58.01
2022-08-15T19:55:41.409Z,59.62
2022-08-15T19:58:48.699Z,60.94
2022-08-15T20:01:30.392Z,61.73
2022-08-15T20:04:45.069Z,65.07
2022-08-15T20:07:49.937Z,57.97
2022-08-15T20:10:47.762Z,54.77
2022-08-15T20:14:01.750Z,56.32
2022-08-15T20:17:17.801Z,57.32
2022-08-15T20:19:48.079Z,58.49
2022-08-15T20:22:45.295Z,59.14
2022-08-15T20:25:29.633Z,59.99
2022-08-15T20:28:02.415Z,61.68
2022-08-15T20:30:38.904Z,65.51
2022-08-15T20:33:22.347Z,59.59
2022-08-15T20:35:58.179Z,55.12
2022-08-15T20:38:53.274Z,56.54
2022-08-15T20:41:30.625Z,58.43
2022-08-15T20:44:30.950Z,59.82
2022-08-15T20:47:11.766Z,60.73
2022-08-15T20:49:40.990Z,61.05
2022-08-15T20:52:39.424Z,65.31
2022-08-15T20:55:04.855Z,59.41
2022-08-15T20:57:40.922Z,54.87
2022-08-15T21:01:13.288Z,56.26
2022-08-15T21:03:12.921Z,57.71
2022-08-15T21:06:20.774Z,59.88
2022-08-15T21:08:52.458Z,60.63
2022-08-15T21:11:56.881Z,61.62
2022-08-15T21:15:09.894Z,65.13
2022-08-15T21:17:56.535Z,56.76
2022-08-15T21:20:49.671Z,55.10
2022-08-15T21:23:17.950Z,57.43
2022-08-15T21:25:57.897Z,59.06
2022-08-15T21:28:40.817Z,60.36
2022-08-15T21:31:25.276Z,61.31
2022-08-15T21:34:03.995Z,61.72
2022-08-15T21:36:36.161Z,65.14
2022-08-15T21:39:27.917Z,59.22
2022-08-15T21:42:33.951Z,54.82
2022-08-15T21:45:03.041Z,56.96
2022-08-15T21:47:48.480Z,59.09
2022-08-15T21:50:42.100Z,60.56
2022-08-15T21:53:33.821Z,61.69
2022-08-15T21:56:25.502Z,65.65
2022-08-15T21:59:16.645Z,58.53
2022-08-15T22:02:33.649Z,54.97
2022-08-15T22:05:03.696Z,56.51
2022-08-15T22:07:33.135Z,58.00
2022-08-15T22:10:18.695Z,59.35
2022-08-15T22:12:55.660Z,60.57
2022-08-15T22:15:24.959Z,61.33
2022-08-15T22:18:29.099Z,65.99
2022-08-15T22:21:02.537Z,58.98
2022-08-15T22:23:34.683Z,55.64
2022-08-15T22:26:37.050Z,57.01
2022-08-15T22:29:12.525Z,59.01
2022-08-15T22:32:11.503Z,60.64
2022-08-15T22:34:31.849Z,61.84
2022-08-15T22:37:03.933Z,65.56
2022-08-15T22:39:43.049Z,60.72
2022-08-15T22:42:17.862Z,55.17
2022-08-15T22:44:49.632Z,56.34
2022-08-15T22:47:21.812Z,58.03
2022-08-15T22:49:55.288Z,60.07
2022-08-15T22:52:28.183Z,60.82
2022-08-15T22:55:00.047Z,61.60
2022-08-15T22:57:59.286Z,64.97
2022-08-15T23:00:21.347Z,59.68
2022-08-15T23:03:01.123Z,54.60
2022-08-15T23:05:34.929Z,56.32
2022-08-15T23:08:23.889Z,58.08
2022-08-15T23:10:59.150Z,60.60
2022-08-15T23:13:59.969Z,61.57
2022-08-15T23:16:42.970Z,65.23
2022-08-15T23:19:43.523Z,58.34
2022-08-15T23:22:32.768Z,55.31
2022-08-15T23:25:11.923Z,57.56
2022-08-15T23:27:42.679Z,59.31
2022-08-15T23:30:30.992Z,60.26
2022-08-15T23:33:21.587Z,61.15
2022-08-15T23:35:57.223Z,66.12
2022-08-15T23:38:27.124Z,60.30
2022-08-15T23:41:10.295Z,56.09
2022-08-15T23:43:56.791Z,57.99
2022-08-15T23:46:34.747Z,60.17
2022-08-15T23:49:05.604Z,61.63
2022-08-15T23:51:40.554Z,65.35
2022-08-15T23:54:15.399Z,60.39
2022-08-15T23:56:45.316Z,55.57
2022-08-15T23:59:24.812Z,56.83
